createdAt,value
2018-07-31T00:01:29.235Z,9.95
2018-07-31T00:03:58.714Z,9.73
2018-07-31T00:06:28.475Z,9.68
2018-07-31T00:08:57.985Z,9.48
2018-07-31T00:11:27.429Z,8.73
2018-07-31T00:13:56.867Z,9.75
2018-07-31T00:16:26.566Z,9.60
2018-07-31T00:18:55.897Z,9.70
2018-07-31T00:21:25.394Z,9.18
2018-07-31T00:23:54.741Z,9.68
2018-07-31T00:26:24.194Z,9.35
2018-07-31T00:28:53.523Z,9.60
2018-07-31T00:31:23.073Z,10.28
2018-07-31T00:33:52.691Z,10.03
2018-07-31T00:36:22.214Z,9.65
2018-07-31T00:38:51.623Z,10.10
2018-07-31T00:41:21.206Z,9.08
2018-07-31T00:43:50.771Z,10.75
2018-07-31T00:46:20.331Z,9.73
2018-07-31T00:48:49.812Z,9.78
2018-07-31T00:51:19.225Z,10.13
2018-07-31T00:53:48.606Z,10.08
2018-07-31T00:56:18.059Z,9.95
2018-07-31T00:58:47.569Z,10.25
2018-07-31T01:01:16.986Z,10.35
2018-07-31T01:03:46.436Z,9.50
2018-07-31T01:06:15.913Z,10.60
2018-07-31T01:08:45.315Z,10.05
2018-07-31T01:11:14.755Z,11.48
2018-07-31T01:13:44.161Z,10.15
2018-07-31T01:16:13.476Z,9.45
2018-07-31T01:18:42.959Z,10.00
2018-07-31T01:21:12.586Z,9.80
2018-07-31T01:23:41.942Z,9.83
2018-07-31T01:26:11.421Z,9.80
2018-07-31T01:28:40.839Z,9.63
2018-07-31T01:31:10.223Z,10.20
2018-07-31T01:33:39.858Z,9.48
2018-07-31T01:36:09.362Z,9.98
2018-07-31T01:38:38.820Z,9.48
2018-07-31T01:41:08.243Z,10.28
2018-07-31T01:43:37.932Z,9.73
2018-07-31T01:46:07.466Z,9.63
2018-07-31T01:48:37.107Z,10.48
2018-07-31T01:51:06.487Z,8.83
2018-07-31T01:53:36.233Z,9.30
2018-07-31T01:56:05.512Z,10.00
2018-07-31T01:58:34.861Z,9.55
2018-07-31T02:01:04.333Z,9.68
2018-07-31T02:03:33.671Z,8.85
2018-07-31T02:06:03.139Z,9.38
2018-07-31T02:08:32.672Z,8.78
2018-07-31T02:11:02.025Z,9.73
2018-07-31T02:13:31.639Z,9.70
2018-07-31T02:16:00.950Z,8.88
2018-07-31T02:18:30.315Z,9.10
2018-07-31T02:20:59.834Z,9.55
2018-07-31T02:23:29.243Z,8.75
2018-07-31T02:25:58.847Z,10.10
2018-07-31T02:28:28.385Z,9.50
2018-07-31T02:30:57.876Z,9.68
2018-07-31T02:33:27.435Z,9.75
2018-07-31T02:35:57.096Z,10.70
2018-07-31T02:38:26.479Z,9.28
2018-07-31T02:40:55.810Z,9.70
2018-07-31T02:43:25.210Z,9.63
2018-07-31T02:45:54.611Z,9.78
2018-07-31T02:48:27.201Z,9.90
2018-07-31T02:50:56.629Z,10.25
2018-07-31T02:53:25.975Z,10.93
2018-07-31T02:55:55.495Z,10.72
2018-07-31T02:58:24.943Z,10.08
2018-07-31T03:00:54.261Z,10.63
2018-07-31T03:03:23.807Z,9.35
2018-07-31T03:05:53.315Z,10.40
2018-07-31T03:08:22.775Z,10.32
2018-07-31T03:10:52.233Z,10.05
2018-07-31T03:13:21.730Z,10.13
2018-07-31T03:15:51.038Z,9.93
2018-07-31T03:18:20.542Z,10.23
2018-07-31T03:20:49.965Z,9.78
2018-07-31T03:23:21.744Z,10.45
2018-07-31T03:25:51.410Z,10.82
2018-07-31T03:28:20.843Z,11.15
2018-07-31T03:30:50.969Z,10.20
2018-07-31T03:33:25.693Z,10.05
2018-07-31T03:35:55.467Z,11.85
2018-07-31T03:38:25.056Z,10.80
2018-07-31T03:40:54.388Z,10.58
2018-07-31T03:43:23.914Z,10.30
2018-07-31T03:45:53.504Z,11.00
2018-07-31T03:48:23.243Z,10.55
2018-07-31T03:50:52.904Z,11.18
2018-07-31T03:53:22.359Z,10.93
2018-07-31T03:55:51.834Z,10.80
2018-07-31T03:58:21.363Z,11.03
2018-07-31T04:00:50.880Z,10.08
2018-07-31T04:03:20.353Z,11.03
2018-07-31T04:05:49.862Z,10.58
2018-07-31T04:08:19.225Z,12.05
2018-07-31T04:10:48.763Z,11.38
2018-07-31T04:13:18.058Z,12.47
2018-07-31T04:15:47.393Z,11.22
2018-07-31T04:18:17.990Z,12.43
2018-07-31T04:20:47.482Z,12.45
2018-07-31T04:23:16.858Z,11.65
2018-07-31T04:25:46.257Z,11.40
2018-07-31T04:28:15.622Z,11.28
2018-07-31T04:30:45.173Z,11.30
2018-07-31T04:33:14.923Z,11.73
2018-07-31T04:35:44.552Z,11.53
2018-07-31T04:38:14.137Z,11.70
2018-07-31T04:40:43.689Z,11.80
2018-07-31T04:43:12.964Z,12.25
2018-07-31T04:45:42.299Z,11.60
2018-07-31T04:48:12.034Z,12.35
2018-07-31T04:50:41.385Z,12.30
2018-07-31T04:53:11.005Z,11.83
2018-07-31T04:55:40.625Z,11.08
2018-07-31T04:58:10.076Z,11.73
2018-07-31T05:00:39.682Z,11.25
2018-07-31T05:03:09.187Z,11.20
2018-07-31T05:05:38.604Z,11.03
2018-07-31T05:08:08.133Z,12.20
2018-07-31T05:10:37.498Z,12.05
2018-07-31T05:13:07.082Z,11.68
2018-07-31T05:15:36.702Z,11.63
2018-07-31T05:18:06.226Z,10.78
2018-07-31T05:20:35.768Z,11.78
2018-07-31T05:23:05.142Z,11.20
2018-07-31T05:25:34.710Z,11.60
2018-07-31T05:28:04.410Z,12.50
2018-07-31T05:30:34.256Z,10.90
2018-07-31T05:33:04.611Z,11.97
2018-07-31T05:35:34.222Z,11.78
2018-07-31T05:38:03.688Z,11.28
2018-07-31T05:40:33.221Z,11.83
2018-07-31T05:43:02.909Z,11.10
2018-07-31T05:45:32.809Z,12.10
2018-07-31T05:48:02.498Z,12.55
2018-07-31T05:50:32.053Z,12.82
2018-07-31T05:53:01.710Z,12.40
2018-07-31T05:55:31.367Z,12.07
2018-07-31T05:58:01.875Z,12.43
2018-07-31T06:00:31.892Z,13.40
2018-07-31T06:03:01.437Z,12.88
2018-07-31T06:05:31.266Z,11.97
2018-07-31T06:08:01.023Z,11.05
2018-07-31T06:10:30.580Z,11.85
2018-07-31T06:13:00.197Z,12.03
2018-07-31T06:15:29.853Z,10.98
2018-07-31T06:17:59.322Z,12.82
2018-07-31T06:20:28.741Z,12.78
2018-07-31T06:22:58.457Z,11.90
2018-07-31T06:25:27.894Z,12.63
2018-07-31T06:27:57.354Z,13.05
2018-07-31T06:30:26.935Z,12.60
2018-07-31T06:32:56.689Z,12.53
2018-07-31T06:35:26.158Z,11.95
2018-07-31T06:37:56.448Z,12.88
2018-07-31T06:40:26.014Z,12.30
2018-07-31T06:42:55.929Z,12.07
2018-07-31T06:45:25.623Z,12.63
2018-07-31T06:47:55.166Z,11.70
2018-07-31T06:50:24.603Z,12.03
2018-07-31T06:52:54.064Z,11.05
2018-07-31T06:55:23.451Z,11.60
2018-07-31T06:57:52.814Z,11.43
2018-07-31T07:00:22.344Z,12.85
2018-07-31T07:02:51.950Z,11.43
2018-07-31T07:05:21.625Z,11.20
2018-07-31T07:07:51.367Z,10.58
2018-07-31T07:10:21.001Z,11.35
2018-07-31T07:12:50.311Z,11.73
2018-07-31T07:15:19.912Z,10.70
2018-07-31T07:17:49.284Z,10.68
2018-07-31T07:20:18.711Z,10.50
2018-07-31T07:22:48.286Z,9.85
2018-07-31T07:25:17.724Z,10.18
2018-07-31T07:27:47.170Z,10.40
2018-07-31T07:30:16.645Z,9.95
2018-07-31T07:32:46.115Z,10.35
2018-07-31T07:35:16.419Z,10.10
2018-07-31T07:37:45.879Z,9.28
2018-07-31T07:40:15.456Z,9.03
2018-07-31T07:42:44.871Z,10.08
2018-07-31T07:45:14.259Z,9.13
2018-07-31T07:47:43.935Z,8.85
2018-07-31T07:50:13.477Z,8.50
2018-07-31T07:52:43.036Z,9.13
2018-07-31T07:55:12.463Z,8.85
2018-07-31T07:57:41.999Z,9.03
2018-07-31T08:00:12.640Z,8.33
2018-07-31T08:02:42.139Z,8.48
2018-07-31T08:05:11.624Z,8.28
2018-07-31T08:07:41.024Z,7.75
2018-07-31T08:10:10.375Z,8.43
2018-07-31T08:12:39.735Z,8.08
2018-07-31T08:15:09.080Z,8.20
2018-07-31T08:17:38.475Z,7.53
2018-07-31T08:20:08.014Z,8.63
2018-07-31T08:22:37.511Z,7.83
2018-07-31T08:25:06.940Z,8.80
2018-07-31T08:27:36.617Z,8.38
2018-07-31T08:30:06.572Z,8.58
2018-07-31T08:32:35.923Z,7.47
2018-07-31T08:35:06.101Z,7.65
2018-07-31T08:37:35.736Z,8.23
2018-07-31T08:40:05.295Z,7.95
2018-07-31T08:42:34.872Z,7.65
2018-07-31T08:45:04.496Z,7.92
2018-07-31T08:47:33.956Z,7.75
2018-07-31T08:50:03.295Z,8.23
2018-07-31T08:52:32.727Z,7.95
2018-07-31T08:55:02.152Z,8.18
2018-07-31T08:57:31.739Z,7.87
2018-07-31T09:00:01.272Z,8.40
2018-07-31T09:02:30.687Z,8.78
2018-07-31T09:05:01.124Z,8.60
2018-07-31T09:07:30.825Z,8.13
2018-07-31T09:10:00.096Z,7.45
2018-07-31T09:12:29.529Z,7.08
2018-07-31T09:14:58.869Z,6.95
2018-07-31T09:17:28.488Z,7.03
2018-07-31T09:19:57.885Z,7.53
2018-07-31T09:22:27.312Z,7.45
2018-07-31T09:24:56.835Z,7.62
2018-07-31T09:27:26.507Z,7.47
2018-07-31T09:29:55.915Z,7.90
2018-07-31T09:32:30.605Z,7.60
2018-07-31T09:35:00.046Z,8.15
2018-07-31T09:37:29.620Z,8.70
2018-07-31T09:39:59.117Z,8.58
2018-07-31T09:42:28.775Z,8.53
2018-07-31T09:44:58.370Z,7.80
2018-07-31T09:47:27.985Z,8.65
2018-07-31T09:49:57.479Z,8.18
2018-07-31T09:52:26.973Z,7.65
2018-07-31T09:54:56.604Z,8.33
2018-07-31T09:57:26.099Z,8.50
2018-07-31T09:59:55.638Z,8.33
2018-07-31T10:02:25.921Z,8.13
2018-07-31T10:04:55.350Z,7.70
2018-07-31T10:07:24.724Z,7.95
2018-07-31T10:09:54.482Z,8.28
2018-07-31T10:12:23.972Z,8.13
2018-07-31T10:14:53.385Z,8.05
2018-07-31T10:17:23.095Z,8.53
2018-07-31T10:19:52.610Z,9.23
2018-07-31T10:22:22.491Z,7.53
2018-07-31T10:24:52.058Z,7.92
2018-07-31T10:27:21.634Z,7.12
2018-07-31T10:29:51.048Z,6.83
2018-07-31T10:32:20.620Z,6.30
2018-07-31T10:34:51.059Z,6.80
2018-07-31T10:37:20.480Z,7.00
2018-07-31T10:39:50.183Z,7.17
2018-07-31T10:42:20.031Z,6.70
2018-07-31T10:44:49.706Z,7.03
2018-07-31T10:47:20.227Z,6.33
2018-07-31T10:49:50.854Z,7.12
2018-07-31T10:52:20.846Z,6.55
2018-07-31T10:54:50.326Z,6.90
2018-07-31T10:57:20.095Z,7.08
2018-07-31T10:59:50.705Z,5.97
2018-07-31T11:02:20.765Z,6.42
2018-07-31T11:04:50.457Z,6.22
2018-07-31T11:07:20.035Z,6.67
2018-07-31T11:09:50.220Z,6.40
2018-07-31T11:12:20.021Z,6.37
2018-07-31T11:14:49.558Z,6.72
2018-07-31T11:17:19.083Z,6.47
2018-07-31T11:19:48.650Z,5.97
2018-07-31T11:22:18.223Z,6.10
2018-07-31T11:24:47.808Z,6.47
2018-07-31T11:27:17.159Z,5.95
2018-07-31T11:29:46.721Z,6.03
2018-07-31T11:32:16.379Z,6.47
2018-07-31T11:34:45.998Z,6.10
2018-07-31T11:37:15.651Z,6.53
2018-07-31T11:39:45.219Z,6.15
2018-07-31T11:42:14.988Z,5.92
2018-07-31T11:44:44.528Z,6.35
2018-07-31T11:47:14.907Z,6.00
2018-07-31T11:49:44.700Z,6.17
2018-07-31T11:52:14.202Z,6.00
2018-07-31T11:54:44.365Z,6.15
2018-07-31T11:57:13.766Z,6.28
2018-07-31T11:59:43.572Z,6.30
2018-07-31T12:02:13.274Z,6.15
2018-07-31T12:04:42.979Z,6.50
2018-07-31T12:07:12.590Z,5.83
2018-07-31T12:09:42.215Z,6.25
2018-07-31T12:12:11.896Z,6.15
2018-07-31T12:14:41.430Z,6.10
2018-07-31T12:17:10.948Z,6.12
2018-07-31T12:19:40.519Z,6.08
2018-07-31T12:22:10.057Z,5.35
2018-07-31T12:24:39.690Z,5.53
2018-07-31T12:27:09.576Z,5.50
2018-07-31T12:29:39.034Z,5.50
2018-07-31T12:32:08.733Z,5.92
2018-07-31T12:34:38.326Z,5.17
2018-07-31T12:37:08.349Z,5.97
2018-07-31T12:39:41.816Z,6.92
2018-07-31T12:42:11.310Z,6.22
2018-07-31T12:44:40.905Z,5.40
2018-07-31T12:47:10.612Z,6.15
2018-07-31T12:49:40.125Z,7.40
2018-07-31T12:52:09.594Z,6.75
2018-07-31T12:54:39.081Z,6.53
2018-07-31T12:57:08.687Z,6.95
2018-07-31T12:59:38.083Z,7.15
2018-07-31T13:02:08.032Z,7.28
2018-07-31T13:04:37.547Z,7.25
2018-07-31T13:07:07.323Z,7.15
2018-07-31T13:09:36.821Z,5.92
2018-07-31T13:12:06.497Z,6.65
2018-07-31T13:14:35.998Z,6.90
2018-07-31T13:17:06.050Z,6.58
2018-07-31T13:19:35.521Z,6.15
2018-07-31T13:22:10.108Z,6.28
2018-07-31T13:24:39.722Z,6.92
2018-07-31T13:27:09.506Z,7.45
2018-07-31T13:29:39.188Z,7.53
2018-07-31T13:32:08.981Z,6.50
2018-07-31T13:34:38.734Z,6.70
2018-07-31T13:37:08.491Z,5.75
2018-07-31T13:39:38.203Z,6.12
2018-07-31T13:42:08.123Z,6.37
2018-07-31T13:44:37.747Z,6.87
2018-07-31T13:47:07.827Z,6.28
2018-07-31T13:49:37.363Z,6.72
2018-07-31T13:52:07.196Z,6.22
2018-07-31T13:54:37.090Z,6.87
2018-07-31T13:57:10.119Z,6.28
2018-07-31T13:59:39.990Z,6.22
2018-07-31T14:02:11.199Z,6.45
2018-07-31T14:04:40.826Z,5.83
2018-07-31T14:07:10.438Z,6.25
2018-07-31T14:09:40.631Z,6.37
2018-07-31T14:12:10.234Z,6.80
2018-07-31T14:14:40.166Z,6.83
2018-07-31T14:17:09.857Z,7.15
2018-07-31T14:19:39.342Z,6.90
2018-07-31T14:22:09.231Z,7.37
2018-07-31T14:24:39.118Z,7.05
2018-07-31T14:27:08.930Z,6.90
2018-07-31T14:29:38.496Z,6.62
2018-07-31T14:32:08.600Z,7.20
2018-07-31T14:34:39.561Z,7.05
2018-07-31T14:37:10.526Z,7.03
2018-07-31T14:39:40.049Z,7.08
2018-07-31T14:42:12.174Z,7.03
2018-07-31T14:44:41.864Z,6.80
2018-07-31T14:47:11.473Z,6.70
2018-07-31T14:49:41.353Z,6.47
2018-07-31T14:52:11.043Z,7.80
2018-07-31T14:54:41.182Z,7.03
2018-07-31T14:57:11.006Z,6.42
2018-07-31T14:59:44.142Z,6.90
2018-07-31T15:02:14.338Z,6.72
2018-07-31T15:04:44.835Z,6.17
2018-07-31T15:07:15.114Z,7.17
2018-07-31T15:09:44.814Z,6.92
2018-07-31T15:12:14.473Z,6.45
2018-07-31T15:14:44.539Z,7.00
2018-07-31T15:17:14.155Z,6.67
2018-07-31T15:19:44.478Z,6.70
2018-07-31T15:22:14.427Z,6.78
2018-07-31T15:24:43.988Z,7.22
2018-07-31T15:27:13.661Z,7.10
2018-07-31T15:29:44.249Z,6.28
2018-07-31T15:32:13.924Z,7.08
2018-07-31T15:34:43.587Z,6.60
2018-07-31T15:37:13.044Z,7.20
2018-07-31T15:39:42.616Z,6.78
2018-07-31T15:42:12.234Z,6.83
2018-07-31T15:44:41.901Z,6.25
2018-07-31T15:47:11.496Z,6.12
2018-07-31T15:49:41.153Z,7.17
2018-07-31T15:52:10.773Z,6.95
2018-07-31T15:54:40.297Z,6.33
2018-07-31T15:57:09.835Z,7.22
2018-07-31T15:59:40.980Z,6.75
2018-07-31T16:02:10.791Z,6.40
2018-07-31T16:04:40.441Z,6.58
2018-07-31T16:07:11.030Z,6.80
2018-07-31T16:09:40.639Z,6.22
2018-07-31T16:12:10.315Z,6.40
2018-07-31T16:14:40.140Z,6.62
2018-07-31T16:17:11.622Z,5.95
2018-07-31T16:19:41.276Z,6.70
2018-07-31T16:22:10.683Z,7.10
2018-07-31T16:24:40.226Z,6.80
2018-07-31T16:27:11.757Z,6.35
2018-07-31T16:29:41.679Z,7.22
2018-07-31T16:32:11.558Z,6.60
2018-07-31T16:34:41.074Z,6.70
2018-07-31T16:37:10.682Z,6.92
2018-07-31T16:39:40.474Z,7.10
2018-07-31T16:42:09.845Z,7.12
2018-07-31T16:44:39.618Z,6.72
2018-07-31T16:47:09.010Z,7.45
2018-07-31T16:49:38.534Z,6.85
2018-07-31T16:52:08.063Z,7.30
2018-07-31T16:54:38.085Z,6.72
2018-07-31T16:57:07.492Z,7.30
2018-07-31T16:59:36.938Z,6.92
2018-07-31T17:02:06.450Z,7.53
2018-07-31T17:04:36.079Z,7.40
2018-07-31T17:07:05.576Z,7.70
2018-07-31T17:09:35.197Z,7.00
2018-07-31T17:12:04.787Z,7.62
2018-07-31T17:14:34.260Z,7.17
2018-07-31T17:17:03.786Z,7.50
2018-07-31T17:19:33.421Z,7.75
2018-07-31T17:22:02.960Z,7.45
2018-07-31T17:24:32.499Z,6.95
2018-07-31T17:27:02.049Z,7.65
2018-07-31T17:29:31.315Z,6.87
2018-07-31T17:32:00.988Z,7.55
2018-07-31T17:34:30.441Z,6.92
2018-07-31T17:37:00.107Z,7.47
2018-07-31T17:39:29.673Z,6.70
2018-07-31T17:41:59.294Z,7.45
2018-07-31T17:44:28.859Z,6.70
2018-07-31T17:46:58.695Z,6.72
2018-07-31T17:49:28.357Z,6.33
2018-07-31T17:51:58.003Z,7.08
2018-07-31T17:54:27.742Z,6.45
2018-07-31T17:56:57.306Z,7.35
2018-07-31T17:59:26.895Z,6.70
2018-07-31T18:01:56.493Z,6.50
2018-07-31T18:04:26.109Z,6.53
2018-07-31T18:06:55.754Z,6.90
2018-07-31T18:09:25.413Z,6.60
2018-07-31T18:11:54.780Z,6.20
2018-07-31T18:14:24.213Z,6.58
2018-07-31T18:16:53.567Z,7.00
2018-07-31T18:19:23.028Z,7.00
2018-07-31T18:21:52.402Z,6.62
2018-07-31T18:24:22.034Z,6.60
2018-07-31T18:26:51.598Z,6.78
2018-07-31T18:29:21.256Z,6.55
2018-07-31T18:31:50.897Z,6.58
2018-07-31T18:34:20.498Z,6.67
2018-07-31T18:36:49.972Z,6.50
2018-07-31T18:39:19.515Z,6.70
2018-07-31T18:41:48.989Z,7.00
2018-07-31T18:44:18.406Z,6.87
2018-07-31T18:46:47.969Z,6.80
2018-07-31T18:49:17.689Z,7.17
2018-07-31T18:51:47.322Z,6.08
2018-07-31T18:54:17.259Z,7.58
2018-07-31T18:56:46.891Z,7.03
2018-07-31T18:59:16.518Z,8.73
2018-07-31T19:01:46.116Z,6.72
2018-07-31T19:04:15.671Z,7.70
2018-07-31T19:06:45.234Z,6.78
2018-07-31T19:09:14.783Z,7.25
2018-07-31T19:11:44.281Z,6.60
2018-07-31T19:14:17.416Z,7.75
2018-07-31T19:16:46.974Z,7.42
2018-07-31T19:19:16.610Z,7.47
2018-07-31T19:21:46.183Z,7.30
2018-07-31T19:24:15.822Z,7.97
2018-07-31T19:26:45.298Z,7.22
2018-07-31T19:29:22.900Z,7.00
2018-07-31T19:31:52.674Z,7.55
2018-07-31T19:34:22.028Z,7.15
2018-07-31T19:37:06.900Z,6.97
2018-07-31T19:39:36.431Z,6.97
2018-07-31T19:42:06.013Z,6.35
2018-07-31T19:44:35.633Z,7.95
2018-07-31T19:47:05.142Z,7.05
2018-07-31T19:49:34.617Z,7.22
2018-07-31T19:52:04.139Z,7.00
2018-07-31T19:54:34.036Z,7.42
2018-07-31T19:57:08.488Z,7.20
2018-07-31T19:59:40.984Z,7.50
2018-07-31T20:02:10.655Z,8.03
2018-07-31T20:04:40.168Z,7.12
2018-07-31T20:07:09.673Z,7.85
2018-07-31T20:09:39.241Z,7.55
2018-07-31T20:12:08.792Z,7.00
2018-07-31T20:14:38.301Z,7.05
2018-07-31T20:17:27.702Z,7.30
2018-07-31T20:19:57.638Z,7.30
2018-07-31T20:22:27.081Z,6.97
2018-07-31T20:24:56.594Z,7.80
2018-07-31T20:27:25.855Z,7.25
2018-07-31T20:29:56.218Z,7.22
2018-07-31T20:32:25.781Z,7.53
2018-07-31T20:34:56.834Z,6.75
2018-07-31T20:37:26.355Z,7.80
2018-07-31T20:39:56.042Z,7.78
2018-07-31T20:42:25.409Z,7.50
2018-07-31T20:44:54.943Z,7.20
2018-07-31T20:47:24.379Z,7.45
2018-07-31T20:49:57.270Z,6.85
2018-07-31T20:52:28.011Z,7.60
2018-07-31T20:54:58.595Z,7.50
2018-07-31T20:57:28.154Z,7.53
2018-07-31T20:59:57.715Z,7.25
2018-07-31T21:02:33.380Z,7.62
2018-07-31T21:05:02.894Z,7.25
2018-07-31T21:07:32.406Z,6.95
2018-07-31T21:10:01.845Z,8.30
2018-07-31T21:12:31.342Z,7.85
2018-07-31T21:15:00.939Z,8.05
2018-07-31T21:17:30.607Z,7.90
2018-07-31T21:20:00.181Z,7.97
2018-07-31T21:22:30.508Z,7.75
2018-07-31T21:24:59.937Z,7.85
2018-07-31T21:27:30.055Z,8.58
2018-07-31T21:29:59.757Z,8.33
2018-07-31T21:32:29.400Z,8.33
2018-07-31T21:34:58.979Z,8.55
2018-07-31T21:37:28.474Z,8.75
2018-07-31T21:39:58.143Z,8.50
2018-07-31T21:42:27.915Z,9.48
2018-07-31T21:44:57.401Z,8.23
2018-07-31T21:47:26.635Z,9.15
2018-07-31T21:49:56.098Z,8.88
2018-07-31T21:52:26.585Z,9.05
2018-07-31T21:54:56.152Z,8.83
2018-07-31T21:57:26.475Z,8.78
2018-07-31T21:59:55.890Z,8.58
2018-07-31T22:02:25.271Z,8.43
2018-07-31T22:04:54.929Z,9.00
2018-07-31T22:07:25.025Z,9.40
2018-07-31T22:09:54.405Z,9.45
2018-07-31T22:12:23.883Z,9.03
2018-07-31T22:14:53.414Z,9.30
2018-07-31T22:17:22.941Z,9.35
2018-07-31T22:19:52.671Z,9.20
2018-07-31T22:22:22.467Z,8.78
2018-07-31T22:24:51.955Z,8.75
2018-07-31T22:27:22.379Z,9.33
2018-07-31T22:29:51.934Z,9.33
2018-07-31T22:32:21.510Z,9.08
2018-07-31T22:34:51.045Z,9.10
2018-07-31T22:37:20.620Z,10.03
2018-07-31T22:39:50.138Z,8.78
2018-07-31T22:42:19.468Z,9.03
2018-07-31T22:44:48.867Z,8.58
2018-07-31T22:47:18.273Z,9.08
2018-07-31T22:49:47.665Z,9.43
2018-07-31T22:52:17.086Z,9.90
2018-07-31T22:54:47.353Z,9.45
2018-07-31T22:57:16.895Z,10.05
2018-07-31T22:59:46.272Z,9.70
2018-07-31T23:02:15.666Z,10.30
2018-07-31T23:04:45.216Z,9.78
2018-07-31T23:07:14.557Z,9.23
2018-07-31T23:09:48.314Z,9.30
2018-07-31T23:12:18.146Z,10.03
2018-07-31T23:14:47.802Z,9.80
2018-07-31T23:17:17.327Z,10.60
2018-07-31T23:19:46.914Z,9.75
2018-07-31T23:22:21.664Z,9.08
2018-07-31T23:24:51.239Z,9.63
2018-07-31T23:27:20.668Z,9.78
2018-07-31T23:29:50.391Z,10.28
2018-07-31T23:32:20.517Z,10.20
2018-07-31T23:34:50.352Z,10.58
2018-07-31T23:37:19.840Z,9.65
2018-07-31T23:39:49.603Z,9.93
2018-07-31T23:42:19.486Z,9.18
2018-07-31T23:44:49.165Z,9.83
2018-07-31T23:47:18.694Z,9.90
2018-07-31T23:49:48.151Z,10.35
2018-07-31T23:52:17.545Z,9.90
2018-07-31T23:54:47.790Z,10.10
2018-07-31T23:57:17.582Z,10.03
2018-07-31T23:59:48.355Z,9.73
